75FD weather

Fp & L Nuclear Power Plant Heliport
Fort Pierce, Florida, United States

Public forecast

Using degrees Fahrenheit for public forecast. Weather courtesy of forecast.io.

Closest aviation weather report (METAR) to Fp & L Nuclear Power Plant Heliport

Closest report is Witham Field, 10.3 nm (19.1 km) S. Retrieved 2019/10/22 19:48 UTC (37 minutes ago):

KSUA 221948Z 12010KT 7SM SCT031 32/24 A2994

Closest aviation forecast (TAF) to Fp & L Nuclear Power Plant Heliport

Closest forecast is Witham Field, 10.3 nm (19.1 km) S. Retrieved 2019/10/22 18:46 UTC (2 hours ago):

TAF KSUA 221744Z 2218/2318 19005KT P6SM SCT030 FM222100 16007KT P6SM VCSH SCT035 SCT050 FM230300 28006KT P6SM SCT040 BKN250 FM230900 36009KT P6SM BKN250 FM231500 02014KT P6SM BKN040